createdAt,value
2022-10-19T00:01:01.327Z,66.30
2022-10-19T00:03:30.058Z,66.30
2022-10-19T00:05:57.900Z,66.30
2022-10-19T00:08:25.672Z,66.30
2022-10-19T00:10:53.450Z,66.30
2022-10-19T00:13:21.196Z,66.30
2022-10-19T00:15:50.337Z,66.20
2022-10-19T00:18:18.103Z,66.20
2022-10-19T00:20:45.880Z,66.30
2022-10-19T00:23:13.660Z,66.20
2022-10-19T00:25:41.467Z,66.20
2022-10-19T00:28:09.367Z,66.20
2022-10-19T00:30:38.411Z,66.30
2022-10-19T00:33:07.556Z,66.30
2022-10-19T00:35:35.291Z,66.30
2022-10-19T00:38:03.063Z,66.20
2022-10-19T00:40:30.896Z,66.30
2022-10-19T00:42:58.643Z,66.20
2022-10-19T00:45:26.503Z,66.20
2022-10-19T00:47:54.281Z,66.20
2022-10-19T00:50:23.802Z,66.10
2022-10-19T00:52:51.605Z,66.10
2022-10-19T00:55:19.740Z,66.10
2022-10-19T00:57:47.613Z,66.10
2022-10-19T01:00:15.586Z,66.10
2022-10-19T01:02:43.331Z,66.10
2022-10-19T01:05:12.313Z,66.30
2022-10-19T01:07:41.960Z,66.40
2022-10-19T01:10:10.719Z,66.50
2022-10-19T01:12:59.241Z,66.30
2022-10-19T01:15:37.275Z,66.30
2022-10-19T01:18:13.344Z,66.20
2022-10-19T01:21:23.287Z,66.20
2022-10-19T01:24:23.493Z,66.40
2022-10-19T01:27:10.396Z,66.40
2022-10-19T01:29:57.321Z,66.50
2022-10-19T01:32:32.516Z,66.40
2022-10-19T01:35:08.093Z,66.40
2022-10-19T01:37:42.080Z,66.30
2022-10-19T01:40:15.904Z,66.30
2022-10-19T01:42:47.759Z,66.30
2022-10-19T01:45:19.930Z,66.20
2022-10-19T01:47:51.248Z,66.30
2022-10-19T01:50:25.153Z,66.40
2022-10-19T01:52:56.337Z,66.40
2022-10-19T01:55:27.322Z,66.30
2022-10-19T01:58:00.088Z,66.50
2022-10-19T02:00:30.316Z,66.50
2022-10-19T02:03:00.248Z,66.50
2022-10-19T02:05:32.799Z,66.40
2022-10-19T02:08:03.738Z,66.60
2022-10-19T02:10:33.833Z,66.50
2022-10-19T02:13:03.565Z,66.40
2022-10-19T02:15:37.349Z,66.50
2022-10-19T02:18:07.037Z,66.40
2022-10-19T02:20:36.531Z,66.50
2022-10-19T02:23:05.641Z,66.60
2022-10-19T02:25:33.674Z,66.80
2022-10-19T02:28:03.853Z,66.80
2022-10-19T02:30:33.127Z,66.80
2022-10-19T02:33:01.035Z,66.70
2022-10-19T02:35:29.211Z,66.60
2022-10-19T02:38:00.991Z,66.70
2022-10-19T02:40:30.762Z,66.70
2022-10-19T02:43:04.892Z,66.70
2022-10-19T02:45:38.377Z,66.80
2022-10-19T02:48:09.690Z,66.80
2022-10-19T02:50:37.558Z,66.70
2022-10-19T02:53:05.294Z,66.60
2022-10-19T02:55:33.149Z,66.70
2022-10-19T02:58:00.942Z,66.70
2022-10-19T03:00:28.745Z,66.60
2022-10-19T03:02:57.938Z,66.60
2022-10-19T03:05:27.395Z,66.80
2022-10-19T03:07:55.187Z,67.00
2022-10-19T03:10:22.957Z,66.80
2022-10-19T03:12:50.899Z,66.80
2022-10-19T03:15:19.744Z,67.50
2022-10-19T03:17:47.568Z,66.90
2022-10-19T03:20:16.828Z,66.80
2022-10-19T03:22:44.590Z,66.80
2022-10-19T03:25:12.332Z,66.60
2022-10-19T03:27:40.143Z,66.80
2022-10-19T03:30:08.792Z,66.70
2022-10-19T03:32:36.554Z,66.80
2022-10-19T03:35:04.398Z,66.70
2022-10-19T03:37:33.803Z,66.80
2022-10-19T03:40:01.840Z,66.80
2022-10-19T03:42:29.681Z,66.80
2022-10-19T03:44:57.441Z,66.70
2022-10-19T03:47:25.328Z,66.70
2022-10-19T03:49:53.089Z,66.60
2022-10-19T03:52:21.179Z,66.70
2022-10-19T03:54:52.070Z,66.80
2022-10-19T03:57:19.916Z,66.80
2022-10-19T03:59:47.679Z,66.80
2022-10-19T04:02:15.447Z,66.60
2022-10-19T04:04:43.191Z,66.80
2022-10-19T04:07:10.917Z,66.70
2022-10-19T04:09:38.665Z,66.70
2022-10-19T04:12:07.876Z,67.30
2022-10-19T04:14:52.418Z,66.70
2022-10-19T04:17:23.340Z,67.40
2022-10-19T04:19:51.087Z,66.70
2022-10-19T04:22:18.811Z,66.70
2022-10-19T04:24:46.569Z,66.70
2022-10-19T04:27:15.643Z,66.70
2022-10-19T04:29:43.405Z,66.80
2022-10-19T04:32:11.144Z,66.70
2022-10-19T04:34:40.099Z,66.70
2022-10-19T04:37:08.089Z,66.80
2022-10-19T04:39:39.341Z,66.70
2022-10-19T04:42:07.147Z,66.70
2022-10-19T04:44:36.289Z,66.60
2022-10-19T04:47:04.100Z,66.60
2022-10-19T04:49:31.816Z,66.60
2022-10-19T04:51:59.548Z,66.50
2022-10-19T04:54:27.283Z,66.50
2022-10-19T04:56:55.045Z,66.50
2022-10-19T04:59:22.776Z,66.40
2022-10-19T05:01:51.871Z,66.50
2022-10-19T05:04:19.596Z,66.50
2022-10-19T05:06:47.327Z,66.40
2022-10-19T05:09:15.070Z,66.40
2022-10-19T05:11:42.832Z,66.40
2022-10-19T05:14:10.652Z,66.40
2022-10-19T05:16:38.432Z,66.40
2022-10-19T05:19:07.508Z,66.50
2022-10-19T05:21:35.234Z,66.40
2022-10-19T05:24:03.135Z,66.50
2022-10-19T05:26:31.051Z,66.40
2022-10-19T05:29:01.911Z,66.40
2022-10-19T05:31:31.688Z,66.50
2022-10-19T05:34:00.074Z,66.30
2022-10-19T05:36:34.371Z,66.20
2022-10-19T05:39:03.967Z,66.20
2022-10-19T05:41:31.776Z,66.20
2022-10-19T05:44:01.271Z,66.20
2022-10-19T05:46:30.565Z,66.30
2022-10-19T05:48:59.471Z,66.20
2022-10-19T05:51:29.618Z,66.30
2022-10-19T05:53:58.465Z,66.20
2022-10-19T05:56:27.644Z,66.10
2022-10-19T05:58:57.302Z,66.00
2022-10-19T06:01:25.337Z,66.10
2022-10-19T06:03:54.652Z,66.20
2022-10-19T06:06:23.032Z,66.10
2022-10-19T06:08:53.098Z,66.20
2022-10-19T06:11:22.630Z,66.30
2022-10-19T06:13:51.474Z,66.30
2022-10-19T06:16:20.352Z,66.30
2022-10-19T06:18:48.523Z,66.30
2022-10-19T06:21:20.490Z,66.30
2022-10-19T06:23:53.049Z,66.40
2022-10-19T06:26:21.108Z,66.30
2022-10-19T06:28:50.126Z,66.20
2022-10-19T06:31:18.732Z,66.30
2022-10-19T06:33:49.293Z,66.20
2022-10-19T06:36:19.994Z,66.30
2022-10-19T06:38:48.263Z,66.10
2022-10-19T06:41:17.720Z,66.30
2022-10-19T06:43:45.536Z,66.20
2022-10-19T06:46:17.672Z,66.30
2022-10-19T06:48:45.442Z,66.30
2022-10-19T06:51:13.666Z,66.30
2022-10-19T06:53:41.440Z,66.20
2022-10-19T06:56:11.016Z,66.20
2022-10-19T06:58:40.340Z,66.30
2022-10-19T07:01:09.589Z,66.30
2022-10-19T07:03:38.560Z,66.20
2022-10-19T07:06:08.315Z,66.30
2022-10-19T07:08:37.525Z,66.20
2022-10-19T07:11:07.791Z,66.40
2022-10-19T07:13:36.025Z,66.30
2022-10-19T07:16:07.406Z,66.30
2022-10-19T07:18:36.430Z,66.30
2022-10-19T07:21:06.664Z,66.20
2022-10-19T07:23:36.244Z,66.40
2022-10-19T07:26:06.818Z,66.40
2022-10-19T07:28:35.494Z,66.30
2022-10-19T07:31:08.166Z,66.30
2022-10-19T07:33:36.186Z,66.30
2022-10-19T07:36:05.820Z,66.30
2022-10-19T07:38:34.751Z,66.30
2022-10-19T07:41:04.228Z,66.20
2022-10-19T07:43:32.076Z,66.30
2022-10-19T07:46:01.146Z,66.30
2022-10-19T07:48:30.670Z,66.20
2022-10-19T07:50:58.508Z,66.30
2022-10-19T07:53:26.329Z,66.20
2022-10-19T07:55:54.073Z,66.10
2022-10-19T07:58:21.872Z,66.10
2022-10-19T08:00:49.612Z,66.10
2022-10-19T08:06:08.281Z,66.00
2022-10-19T08:08:36.671Z,66.20
2022-10-19T08:11:08.761Z,66.10
2022-10-19T08:13:36.542Z,66.10
2022-10-19T08:16:04.764Z,66.10
2022-10-19T08:21:07.257Z,66.00
2022-10-19T08:23:34.981Z,65.90
2022-10-19T08:26:02.762Z,65.90
2022-10-19T08:28:30.487Z,66.00
2022-10-19T08:30:59.017Z,65.90
2022-10-19T08:33:27.442Z,66.00
2022-10-19T08:35:55.207Z,66.50
2022-10-19T08:38:24.259Z,65.80
2022-10-19T08:40:52.133Z,66.00
2022-10-19T08:43:26.443Z,65.90
2022-10-19T08:46:00.249Z,65.90
2022-10-19T08:48:32.812Z,65.90
2022-10-19T08:51:01.767Z,65.70
2022-10-19T08:53:41.287Z,65.80
2022-10-19T08:56:45.813Z,65.70
2022-10-19T08:59:15.955Z,65.50
2022-10-19T09:01:49.039Z,65.60
2022-10-19T09:04:23.277Z,65.70
2022-10-19T09:07:00.640Z,65.70
2022-10-19T09:09:32.375Z,65.60
2022-10-19T09:12:05.668Z,65.60
2022-10-19T09:14:36.800Z,65.50
2022-10-19T09:17:10.983Z,65.40
2022-10-19T09:19:38.727Z,65.40
2022-10-19T09:22:09.352Z,65.30
2022-10-19T09:24:44.913Z,65.20
2022-10-19T09:27:20.943Z,65.20
2022-10-19T09:29:52.053Z,65.30
2022-10-19T09:32:23.031Z,65.20
2022-10-19T09:34:53.696Z,65.00
2022-10-19T09:37:26.389Z,64.80
2022-10-19T09:39:56.800Z,64.80
2022-10-19T09:42:28.953Z,64.60
2022-10-19T09:44:57.771Z,64.30
2022-10-19T09:47:34.705Z,64.60
2022-10-19T09:50:09.840Z,64.50
2022-10-19T09:52:39.706Z,64.30
2022-10-19T09:55:22.623Z,64.20
2022-10-19T09:58:00.225Z,63.80
2022-10-19T10:00:36.449Z,63.90
2022-10-19T10:03:05.926Z,63.80
2022-10-19T10:05:36.161Z,63.70
2022-10-19T10:08:04.871Z,63.50
2022-10-19T10:10:40.047Z,63.30
2022-10-19T10:13:07.834Z,63.30
2022-10-19T10:15:48.262Z,63.60
2022-10-19T10:18:17.674Z,63.30
2022-10-19T10:21:13.042Z,63.20
2022-10-19T10:23:41.146Z,63.20
2022-10-19T10:26:20.391Z,62.90
2022-10-19T10:28:50.075Z,62.90
2022-10-19T10:31:23.332Z,63.10
2022-10-19T10:33:56.512Z,62.90
2022-10-19T10:36:29.029Z,62.90
2022-10-19T10:39:04.385Z,62.80
2022-10-19T10:41:39.328Z,62.80
2022-10-19T10:44:10.185Z,63.00
2022-10-19T10:46:44.696Z,63.00
2022-10-19T10:49:21.000Z,62.90
2022-10-19T10:51:53.009Z,62.90
2022-10-19T10:54:22.768Z,63.00
2022-10-19T10:57:13.011Z,62.90
2022-10-19T10:59:48.245Z,62.90
2022-10-19T11:05:02.766Z,62.40
2022-10-19T11:07:33.902Z,62.60
2022-10-19T11:10:09.770Z,62.10
2022-10-19T11:12:42.613Z,62.20
2022-10-19T11:15:19.540Z,62.40
2022-10-19T11:17:58.296Z,62.80
2022-10-19T11:20:30.323Z,62.70
2022-10-19T11:23:07.960Z,62.70
2022-10-19T11:25:47.020Z,62.60
2022-10-19T11:28:28.079Z,62.80
2022-10-19T11:31:00.544Z,62.60
2022-10-19T11:33:40.996Z,62.10
2022-10-19T11:36:18.138Z,62.60
2022-10-19T11:38:58.329Z,62.10
2022-10-19T11:41:31.620Z,62.20
2022-10-19T11:44:17.803Z,62.00
2022-10-19T11:46:55.679Z,61.70
2022-10-19T11:49:38.673Z,61.90
2022-10-19T11:52:13.169Z,61.40
2022-10-19T11:54:52.694Z,61.50
2022-10-19T11:57:24.832Z,60.90
2022-10-19T12:00:14.590Z,61.60
2022-10-19T12:03:03.813Z,61.20
2022-10-19T12:05:37.919Z,61.40
2022-10-19T12:08:22.329Z,61.70
2022-10-19T12:10:57.979Z,61.50
2022-10-19T12:13:30.780Z,61.80
2022-10-19T12:16:01.529Z,61.90
2022-10-19T12:18:35.863Z,61.70
2022-10-19T12:21:08.777Z,61.20
2022-10-19T12:23:38.869Z,61.40
2022-10-19T12:26:11.136Z,60.90
2022-10-19T12:28:43.131Z,61.20
2022-10-19T12:31:13.620Z,61.70
2022-10-19T12:33:47.967Z,61.20
2022-10-19T12:36:27.286Z,61.40
2022-10-19T12:39:03.860Z,61.70
2022-10-19T12:41:37.927Z,62.20
2022-10-19T12:44:33.823Z,61.30
2022-10-19T12:47:11.980Z,60.60
2022-10-19T12:49:50.397Z,61.10
2022-10-19T12:52:39.652Z,61.60
2022-10-19T12:55:25.588Z,61.50
2022-10-19T12:58:03.320Z,61.20
2022-10-19T13:00:34.243Z,61.70
2022-10-19T13:03:07.346Z,61.20
2022-10-19T13:05:36.191Z,61.10
2022-10-19T13:08:08.076Z,61.50
2022-10-19T13:10:38.762Z,61.50
2022-10-19T13:13:06.766Z,61.50
2022-10-19T13:15:58.996Z,61.50
2022-10-19T13:19:00.523Z,61.20
2022-10-19T13:21:52.386Z,60.80
2022-10-19T13:24:37.901Z,60.30
2022-10-19T13:27:28.464Z,60.20
2022-10-19T13:29:56.760Z,60.60
2022-10-19T13:32:38.106Z,60.60
2022-10-19T13:35:27.373Z,61.50
2022-10-19T13:38:30.371Z,60.80
2022-10-19T13:41:02.876Z,60.70
2022-10-19T13:43:33.829Z,60.20
2022-10-19T13:46:08.314Z,60.70
2022-10-19T13:48:54.743Z,59.90
2022-10-19T13:51:31.965Z,60.20
2022-10-19T13:54:11.345Z,59.90
2022-10-19T13:56:56.792Z,60.30
2022-10-19T14:00:00.289Z,60.10
2022-10-19T14:03:05.412Z,60.20
2022-10-19T14:05:53.590Z,60.30
2022-10-19T14:08:48.922Z,59.80
2022-10-19T14:11:20.252Z,60.30
2022-10-19T14:14:08.047Z,60.40
2022-10-19T14:16:35.913Z,60.80
2022-10-19T14:19:03.718Z,60.90
2022-10-19T14:21:33.022Z,60.60
2022-10-19T14:24:01.031Z,60.10
2022-10-19T14:26:31.428Z,60.60
2022-10-19T14:29:00.863Z,60.10
2022-10-19T14:31:35.050Z,60.50
2022-10-19T14:34:05.566Z,60.60
2022-10-19T14:36:37.450Z,60.10
2022-10-19T14:39:06.039Z,60.50
2022-10-19T14:41:37.197Z,60.20
2022-10-19T14:44:33.746Z,60.20
2022-10-19T14:47:02.321Z,60.10
2022-10-19T14:49:30.155Z,60.30
2022-10-19T14:52:01.464Z,60.60
2022-10-19T14:54:33.104Z,60.90
2022-10-19T14:57:05.715Z,60.60
2022-10-19T14:59:37.165Z,60.40
2022-10-19T15:02:13.329Z,60.30
2022-10-19T15:04:41.243Z,59.70
2022-10-19T15:07:19.901Z,60.30
2022-10-19T15:09:55.480Z,60.50
2022-10-19T15:12:28.268Z,60.60
2022-10-19T15:14:56.764Z,60.60
2022-10-19T15:17:29.651Z,60.50
2022-10-19T15:20:00.733Z,60.50
2022-10-19T15:22:41.077Z,60.30
2022-10-19T15:25:26.167Z,60.60
2022-10-19T15:27:55.364Z,60.60
2022-10-19T15:30:29.115Z,60.70
2022-10-19T15:33:11.151Z,60.50
2022-10-19T15:35:40.514Z,60.60
2022-10-19T15:38:14.557Z,60.80
2022-10-19T15:40:44.794Z,60.70
2022-10-19T15:43:46.645Z,60.80
2022-10-19T15:46:32.521Z,60.70
2022-10-19T15:49:04.281Z,60.20
2022-10-19T15:51:35.405Z,60.80
2022-10-19T15:54:04.864Z,60.70
2022-10-19T15:56:34.460Z,60.70
2022-10-19T15:59:06.264Z,61.00
2022-10-19T16:01:34.743Z,61.00
2022-10-19T16:04:02.829Z,61.00
2022-10-19T16:06:33.664Z,60.90
2022-10-19T16:09:02.037Z,60.80
2022-10-19T16:11:30.887Z,60.90
2022-10-19T16:13:58.624Z,61.00
2022-10-19T16:16:30.742Z,61.00
2022-10-19T16:18:59.276Z,61.00
2022-10-19T16:21:29.377Z,61.00
2022-10-19T16:23:57.300Z,60.90
2022-10-19T16:26:26.253Z,61.00
2022-10-19T16:28:55.060Z,60.90
2022-10-19T16:31:23.946Z,61.20
2022-10-19T16:33:53.231Z,61.10
2022-10-19T16:36:20.999Z,61.10
2022-10-19T16:38:49.220Z,61.20
2022-10-19T16:41:17.092Z,61.10
2022-10-19T16:43:44.993Z,61.10
2022-10-19T16:46:12.735Z,61.10
2022-10-19T16:48:40.454Z,61.10
2022-10-19T16:51:24.672Z,61.10
2022-10-19T16:53:54.103Z,61.00
2022-10-19T16:56:21.953Z,61.20
2022-10-19T16:58:49.769Z,61.80
2022-10-19T17:01:19.564Z,61.00
2022-10-19T17:03:48.715Z,61.00
2022-10-19T17:06:18.808Z,61.00
2022-10-19T17:09:30.235Z,61.00
2022-10-19T17:11:36.711Z,61.00
2022-10-19T17:14:06.538Z,61.20
2022-10-19T17:16:36.713Z,61.10
2022-10-19T17:19:06.631Z,61.20
2022-10-19T17:21:38.822Z,61.30
2022-10-19T17:24:09.520Z,61.20
2022-10-19T17:26:39.399Z,61.20
2022-10-19T17:29:07.753Z,61.20
2022-10-19T17:31:36.403Z,61.30
2022-10-19T17:34:04.676Z,61.20
2022-10-19T17:36:36.520Z,61.20
2022-10-19T17:39:07.240Z,61.20
2022-10-19T17:41:35.246Z,61.20
2022-10-19T17:44:05.175Z,61.20
2022-10-19T17:46:35.091Z,61.30
2022-10-19T17:49:03.069Z,61.30
2022-10-19T17:51:33.083Z,61.20
2022-10-19T17:54:04.102Z,61.20
2022-10-19T17:56:32.084Z,61.30
2022-10-19T17:59:02.385Z,61.30
2022-10-19T18:01:31.278Z,61.30
2022-10-19T18:03:59.203Z,61.30
2022-10-19T18:06:29.459Z,61.10
2022-10-19T18:08:58.667Z,61.30
2022-10-19T18:11:29.969Z,61.30
2022-10-19T18:14:00.363Z,61.40
2022-10-19T18:16:30.579Z,61.30
2022-10-19T18:19:00.119Z,61.40
2022-10-19T18:21:30.992Z,61.40
2022-10-19T18:24:00.654Z,61.40
2022-10-19T18:26:31.862Z,61.60
2022-10-19T18:29:00.719Z,61.60
2022-10-19T18:31:30.580Z,61.60
2022-10-19T18:33:59.963Z,61.60
2022-10-19T18:36:28.112Z,61.70
2022-10-19T18:38:58.127Z,61.60
2022-10-19T18:41:26.172Z,61.70
2022-10-19T18:43:57.433Z,61.60
2022-10-19T18:46:26.580Z,61.80
2022-10-19T18:48:54.642Z,61.70
2022-10-19T18:51:24.095Z,61.90
2022-10-19T18:53:52.601Z,61.90
2022-10-19T18:56:22.656Z,61.90
2022-10-19T18:58:50.436Z,61.80
2022-10-19T19:01:22.783Z,62.00
2022-10-19T19:03:52.434Z,61.90
2022-10-19T19:06:21.978Z,62.00
2022-10-19T19:08:49.884Z,61.90
2022-10-19T19:11:19.771Z,62.00
2022-10-19T19:13:49.351Z,61.90
2022-10-19T19:16:17.183Z,62.10
2022-10-19T19:18:46.435Z,62.00
2022-10-19T19:21:16.679Z,62.00
2022-10-19T19:23:44.949Z,62.00
2022-10-19T19:26:14.138Z,62.10
2022-10-19T19:28:44.211Z,62.20
2022-10-19T19:31:15.779Z,62.30
2022-10-19T19:33:43.958Z,62.00
2022-10-19T19:36:16.029Z,62.20
2022-10-19T19:38:44.274Z,62.10
2022-10-19T19:41:13.796Z,62.10
2022-10-19T19:43:42.432Z,62.20
2022-10-19T19:46:12.457Z,62.20
2022-10-19T19:48:42.030Z,62.20
2022-10-19T19:51:10.755Z,62.20
2022-10-19T19:53:40.019Z,62.20
2022-10-19T19:56:09.436Z,63.00
2022-10-19T19:58:37.267Z,62.40
2022-10-19T20:01:12.305Z,62.50
2022-10-19T20:03:41.780Z,62.30
2022-10-19T20:06:10.425Z,62.40
2022-10-19T20:08:40.014Z,62.60
2022-10-19T20:11:09.543Z,62.70
2022-10-19T20:13:37.358Z,62.50
2022-10-19T20:16:09.014Z,62.60
2022-10-19T20:18:36.788Z,62.60
2022-10-19T20:21:06.046Z,62.30
2022-10-19T20:23:34.229Z,62.50
2022-10-19T20:26:03.313Z,62.60
2022-10-19T20:28:33.445Z,62.50
2022-10-19T20:31:02.651Z,62.80
2022-10-19T20:33:31.618Z,62.80
2022-10-19T20:36:04.723Z,62.80
2022-10-19T20:38:32.537Z,62.80
2022-10-19T20:41:02.968Z,62.70
2022-10-19T20:43:35.034Z,62.80
2022-10-19T20:46:04.639Z,62.80
2022-10-19T20:48:32.781Z,62.90
2022-10-19T20:51:11.722Z,62.80
2022-10-19T20:53:39.898Z,62.90
2022-10-19T20:56:09.837Z,63.00
2022-10-19T20:58:40.854Z,63.20
2022-10-19T21:01:10.251Z,63.10
2022-10-19T21:03:38.308Z,63.00
2022-10-19T21:06:07.173Z,63.00
2022-10-19T21:08:35.932Z,63.00
2022-10-19T21:11:12.963Z,63.00
2022-10-19T21:13:42.040Z,63.00
2022-10-19T21:16:11.123Z,63.10
2022-10-19T21:18:39.269Z,63.10
2022-10-19T21:21:15.093Z,63.00
2022-10-19T21:23:43.531Z,63.10
2022-10-19T21:26:11.584Z,63.10
2022-10-19T21:28:40.061Z,63.00
2022-10-19T21:31:10.414Z,63.10
2022-10-19T21:33:38.200Z,63.10
2022-10-19T21:36:08.840Z,63.10
2022-10-19T21:38:36.763Z,63.10
2022-10-19T21:41:06.527Z,63.10
2022-10-19T21:43:35.193Z,63.00
2022-10-19T21:46:03.762Z,63.10
2022-10-19T21:48:33.799Z,63.20
2022-10-19T21:51:11.147Z,63.20
2022-10-19T21:53:38.935Z,63.30
2022-10-19T21:56:07.234Z,63.40
2022-10-19T21:58:35.025Z,63.30
2022-10-19T22:01:05.525Z,63.20
2022-10-19T22:03:35.389Z,63.20
2022-10-19T22:06:03.155Z,63.10
2022-10-19T22:08:30.942Z,63.00
2022-10-19T22:10:58.755Z,63.00
2022-10-19T22:13:26.548Z,63.10
2022-10-19T22:15:54.287Z,63.20
2022-10-19T22:18:22.008Z,63.20
2022-10-19T22:20:51.117Z,63.30
2022-10-19T22:23:18.859Z,63.40
2022-10-19T22:25:46.596Z,63.50
2022-10-19T22:28:14.347Z,63.40
2022-10-19T22:30:44.942Z,63.30
2022-10-19T22:33:12.696Z,63.40
2022-10-19T22:35:40.434Z,63.60
2022-10-19T22:38:09.544Z,63.50
2022-10-19T22:40:37.287Z,63.60
2022-10-19T22:43:06.790Z,63.40
2022-10-19T22:45:34.755Z,63.60
2022-10-19T22:48:02.675Z,63.60
2022-10-19T22:50:30.446Z,63.70
2022-10-19T22:52:58.216Z,63.60
2022-10-19T22:55:27.361Z,63.50
2022-10-19T22:57:55.153Z,63.70
2022-10-19T23:00:22.970Z,63.70
2022-10-19T23:02:50.734Z,63.70
2022-10-19T23:05:18.525Z,63.70
2022-10-19T23:07:46.340Z,64.40
2022-10-19T23:10:14.171Z,63.70
2022-10-19T23:12:43.347Z,63.80
2022-10-19T23:15:11.778Z,63.80
2022-10-19T23:17:39.548Z,63.80
2022-10-19T23:20:08.621Z,63.80
2022-10-19T23:22:36.391Z,64.00
2022-10-19T23:25:04.316Z,64.00
2022-10-19T23:27:32.197Z,64.10
2022-10-19T23:30:01.488Z,64.10
2022-10-19T23:32:29.277Z,64.00
2022-10-19T23:34:57.109Z,64.00
2022-10-19T23:37:24.989Z,63.90
2022-10-19T23:39:52.743Z,64.00
2022-10-19T23:42:20.478Z,64.10
2022-10-19T23:44:48.238Z,64.10
2022-10-19T23:47:17.354Z,64.00
2022-10-19T23:49:45.148Z,64.00
2022-10-19T23:52:12.865Z,64.10
2022-10-19T23:54:40.643Z,64.30
2022-10-19T23:57:08.467Z,64.20
2022-10-19T23:59:36.224Z,64.10
